sensor_id;sensor_type;location;lat;lon;timestamp;pressure;altitude;pressure_sealevel;temperature;humidity
60583;BME280;46415;47.536;19.066;2023-09-19T00:00:24;-18841.31;;;22.64;81.89
60583;BME280;46415;47.536;19.066;2023-09-19T00:03:40;-18839.69;;;22.58;82.30
60583;BME280;46415;47.536;19.066;2023-09-19T00:06:51;-18839.28;;;22.56;82.26
60583;BME280;46415;47.536;19.066;2023-09-19T00:10:03;-18839.97;;;22.59;82.20
60583;BME280;46415;47.536;19.066;2023-09-19T00:13:12;-18838.75;;;22.54;82.44
60583;BME280;46415;47.536;19.066;2023-09-19T00:16:27;-18838.59;;;22.54;82.86
60583;BME280;46415;47.536;19.066;2023-09-19T00:19:38;-18837.53;;;22.50;83.03
60583;BME280;46415;47.536;19.066;2023-09-19T00:22:57;-18838.87;;;22.55;82.88
60583;BME280;46415;47.536;19.066;2023-09-19T00:26:14;-18837.78;;;22.51;82.84
60583;BME280;46415;47.536;19.066;2023-09-19T00:29:31;-18836.72;;;22.47;83.49
60583;BME280;46415;47.536;19.066;2023-09-19T00:32:43;-18835.63;;;22.43;84.00
60583;BME280;46415;47.536;19.066;2023-09-19T00:36:00;-18834.13;;;22.37;84.45
60583;BME280;46415;47.536;19.066;2023-09-19T00:39:20;-18831.16;;;22.26;85.10
60583;BME280;46415;47.536;19.066;2023-09-19T00:42:40;-18829.81;;;22.21;85.69
60583;BME280;46415;47.536;19.066;2023-09-19T00:45:59;-18827.91;;;22.14;86.16
60583;BME280;46415;47.536;19.066;2023-09-19T00:49:15;-18828.03;;;22.14;86.65
60583;BME280;46415;47.536;19.066;2023-09-19T00:52:28;-18829.66;;;22.20;86.21
60583;BME280;46415;47.536;19.066;2023-09-19T00:55:36;-18829.41;;;22.19;86.15
60583;BME280;46415;47.536;19.066;2023-09-19T00:58:52;-18826.97;;;22.10;86.88
60583;BME280;46415;47.536;19.066;2023-09-19T01:02:07;-18824.53;;;22.01;87.78
60583;BME280;46415;47.536;19.066;2023-09-19T01:05:20;-18824.78;;;22.02;88.12
60583;BME280;46415;47.536;19.066;2023-09-19T01:08:30;-18827.22;;;22.11;87.52
60583;BME280;46415;47.536;19.066;2023-09-19T01:11:45;-18824.66;;;22.02;88.05
60583;BME280;46415;47.536;19.066;2023-09-19T01:14:59;-18825.06;;;22.03;88.36
60583;BME280;46415;47.536;19.066;2023-09-19T01:21:48;-18823.03;;;21.95;88.97
60583;BME280;46415;47.536;19.066;2023-09-19T01:31:48;-18822.22;;;21.92;90.21
60583;BME280;46415;47.536;19.066;2023-09-19T01:35:01;-18821.00;;;21.88;90.73
60583;BME280;46415;47.536;19.066;2023-09-19T01:38:15;-18823.84;;;21.98;90.40
60583;BME280;46415;47.536;19.066;2023-09-19T01:41:37;-18823.97;;;21.99;90.59
60583;BME280;46415;47.536;19.066;2023-09-19T01:44:59;-18822.75;;;21.94;90.71
60583;BME280;46415;47.536;19.066;2023-09-19T01:51:42;-18816.13;;;21.70;92.47
60583;BME280;46415;47.536;19.066;2023-09-19T01:54:56;-18814.34;;;21.63;93.34
60583;BME280;46415;47.536;19.066;2023-09-19T01:58:15;-18813.94;;;21.62;93.74
60583;BME280;46415;47.536;19.066;2023-09-19T02:01:38;-18814.75;;;21.65;93.92
60583;BME280;46415;47.536;19.066;2023-09-19T02:05:00;-18813.25;;;21.59;94.13
60583;BME280;46415;47.536;19.066;2023-09-19T02:08:13;-18812.19;;;21.55;95.09
60583;BME280;46415;47.536;19.066;2023-09-19T02:11:24;-18808.53;;;21.41;96.29
60583;BME280;46415;47.536;19.066;2023-09-19T02:14:35;-18808.25;;;21.40;96.89
60583;BME280;46415;47.536;19.066;2023-09-19T02:17:47;-18807.31;;;21.37;96.96
60583;BME280;46415;47.536;19.066;2023-09-19T02:21:00;-18808.25;;;21.40;97.15
60583;BME280;46415;47.536;19.066;2023-09-19T02:24:14;-18808.78;;;21.42;97.73
60583;BME280;46415;47.536;19.066;2023-09-19T02:27:33;-18810.56;;;21.49;97.58
60583;BME280;46415;47.536;19.066;2023-09-19T02:30:49;-18813.25;;;21.59;96.98
60583;BME280;46415;47.536;19.066;2023-09-19T02:34:02;-18813.53;;;21.60;96.75
60583;BME280;46415;47.536;19.066;2023-09-19T02:37:17;-18815.84;;;21.69;96.60
60583;BME280;46415;47.536;19.066;2023-09-19T02:40:30;-18815.56;;;21.68;96.84
60583;BME280;46415;47.536;19.066;2023-09-19T02:43:50;-18815.72;;;21.68;96.79
60583;BME280;46415;47.536;19.066;2023-09-19T02:47:01;-18813.81;;;21.61;97.52
60583;BME280;46415;47.536;19.066;2023-09-19T02:50:16;-18812.03;;;21.54;97.99
60583;BME280;46415;47.536;19.066;2023-09-19T02:53:23;-18808.37;;;21.41;99.07
60583;BME280;46415;47.536;19.066;2023-09-19T02:56:31;-18808.66;;;21.42;99.60
60583;BME280;46415;47.536;19.066;2023-09-19T02:59:44;-18804.31;;;21.26;100.00
60583;BME280;46415;47.536;19.066;2023-09-19T03:02:58;-18802.41;;;21.18;100.00
60583;BME280;46415;47.536;19.066;2023-09-19T03:06:11;-18802.97;;;21.21;100.00
60583;BME280;46415;47.536;19.066;2023-09-19T03:09:27;-18799.56;;;21.08;100.00
60583;BME280;46415;47.536;19.066;2023-09-19T03:12:36;-18799.03;;;21.06;100.00
60583;BME280;46415;47.536;19.066;2023-09-19T03:15:53;-18796.19;;;20.95;100.00
60583;BME280;46415;47.536;19.066;2023-09-19T03:19:02;-18795.50;;;20.93;100.00
60583;BME280;46415;47.536;19.066;2023-09-19T03:22:16;-18794.41;;;20.89;100.00
60583;BME280;46415;47.536;19.066;2023-09-19T03:25:29;-18793.88;;;20.87;100.00
60583;BME280;46415;47.536;19.066;2023-09-19T03:28:44;-18793.06;;;20.84;100.00
60583;BME280;46415;47.536;19.066;2023-09-19T03:31:56;-18793.19;;;20.84;100.00
60583;BME280;46415;47.536;19.066;2023-09-19T03:35:12;-18792.91;;;20.83;100.00
60583;BME280;46415;47.536;19.066;2023-09-19T03:38:25;-18791.84;;;20.79;100.00
60583;BME280;46415;47.536;19.066;2023-09-19T03:41:36;-18795.50;;;20.93;100.00
60583;BME280;46415;47.536;19.066;2023-09-19T03:44:47;-18795.38;;;20.92;100.00
60583;BME280;46415;47.536;19.066;2023-09-19T03:47:59;-18796.19;;;20.95;100.00
60583;BME280;46415;47.536;19.066;2023-09-19T03:51:10;-18794.00;;;20.87;100.00
60583;BME280;46415;47.536;19.066;2023-09-19T03:54:21;-18793.47;;;20.85;100.00
60583;BME280;46415;47.536;19.066;2023-09-19T03:57:29;-18793.59;;;20.86;100.00
60583;BME280;46415;47.536;19.066;2023-09-19T04:00:42;-18793.88;;;20.87;100.00
60583;BME280;46415;47.536;19.066;2023-09-19T04:03:59;-18795.38;;;20.92;100.00
60583;BME280;46415;47.536;19.066;2023-09-19T04:07:17;-18799.28;;;21.07;100.00
60583;BME280;46415;47.536;19.066;2023-09-19T04:10:30;-18798.47;;;21.04;100.00
60583;BME280;46415;47.536;19.066;2023-09-19T04:13:45;-18802.69;;;21.20;100.00
60583;BME280;46415;47.536;19.066;2023-09-19T04:17:04;-18803.38;;;21.22;100.00
60583;BME280;46415;47.536;19.066;2023-09-19T04:20:25;-18803.63;;;21.23;100.00
60583;BME280;46415;47.536;19.066;2023-09-19T04:23:40;-18806.34;;;21.33;100.00
60583;BME280;46415;47.536;19.066;2023-09-19T04:26:51;-18804.72;;;21.27;100.00
60583;BME280;46415;47.536;19.066;2023-09-19T04:30:11;-18804.72;;;21.27;100.00
60583;BME280;46415;47.536;19.066;2023-09-19T04:33:26;-18805.28;;;21.29;100.00
60583;BME280;46415;47.536;19.066;2023-09-19T04:36:38;-18804.72;;;21.27;100.00
60583;BME280;46415;47.536;19.066;2023-09-19T04:39:55;-18803.63;;;21.23;100.00
60583;BME280;46415;47.536;19.066;2023-09-19T04:43:06;-18802.56;;;21.19;100.00
60583;BME280;46415;47.536;19.066;2023-09-19T04:46:20;-18803.09;;;21.21;100.00
60583;BME280;46415;47.536;19.066;2023-09-19T04:49:39;-18803.91;;;21.24;100.00
60583;BME280;46415;47.536;19.066;2023-09-19T04:52:53;-18804.84;;;21.28;99.18
60583;BME280;46415;47.536;19.066;2023-09-19T04:56:08;-18805.13;;;21.29;98.15
60583;BME280;46415;47.536;19.066;2023-09-19T04:59:20;-18802.84;;;21.20;98.88
60583;BME280;46415;47.536;19.066;2023-09-19T05:02:36;-18803.38;;;21.22;98.65
60583;BME280;46415;47.536;19.066;2023-09-19T05:05:48;-18805.00;;;21.28;98.18
60583;BME280;46415;47.536;19.066;2023-09-19T05:09:03;-18804.19;;;21.25;98.48
60583;BME280;46415;47.536;19.066;2023-09-19T05:12:17;-18800.53;;;21.11;99.47
60583;BME280;46415;47.536;19.066;2023-09-19T05:15:27;-18798.06;;;21.02;100.00
60583;BME280;46415;47.536;19.066;2023-09-19T05:18:40;-18792.78;;;20.83;100.00
60583;BME280;46415;47.536;19.066;2023-09-19T05:21:54;-18788.44;;;20.66;100.00
60583;BME280;46415;47.536;19.066;2023-09-19T05:25:08;-18781.78;;;20.42;100.00
60583;BME280;46415;47.536;19.066;2023-09-19T05:28:18;-18779.09;;;20.31;100.00
60583;BME280;46415;47.536;19.066;2023-09-19T05:31:31;-18777.59;;;20.26;100.00
60583;BME280;46415;47.536;19.066;2023-09-19T05:34:44;-18776.63;;;20.22;100.00
60583;BME280;46415;47.536;19.066;2023-09-19T05:37:55;-18774.72;;;20.15;100.00
60583;BME280;46415;47.536;19.066;2023-09-19T05:41:05;-18773.09;;;20.09;100.00
60583;BME280;46415;47.536;19.066;2023-09-19T05:44:20;-18771.63;;;20.04;100.00
60583;BME280;46415;47.536;19.066;2023-09-19T05:47:30;-18772.69;;;20.08;100.00
60583;BME280;46415;47.536;19.066;2023-09-19T05:50:37;-18771.88;;;20.05;100.00
60583;BME280;46415;47.536;19.066;2023-09-19T05:53:47;-18771.06;;;20.02;100.00
60583;BME280;46415;47.536;19.066;2023-09-19T05:56:51;-18770.38;;;19.99;100.00
60583;BME280;46415;47.536;19.066;2023-09-19T05:59:59;-18768.63;;;19.92;100.00
60583;BME280;46415;47.536;19.066;2023-09-19T06:03:04;-18763.59;;;19.74;100.00
60583;BME280;46415;47.536;19.066;2023-09-19T06:06:12;-18762.09;;;19.68;100.00
60583;BME280;46415;47.536;19.066;2023-09-19T06:09:18;-18759.81;;;19.60;100.00
60583;BME280;46415;47.536;19.066;2023-09-19T06:12:28;-18757.75;;;19.52;100.00
60583;BME280;46415;47.536;19.066;2023-09-19T06:15:37;-18756.94;;;19.49;100.00
60583;BME280;46415;47.536;19.066;2023-09-19T06:18:46;-18745.94;;;19.08;100.00
60583;BME280;46415;47.536;19.066;2023-09-19T06:21:58;-18731.13;;;18.53;100.00
60583;BME280;46415;47.536;19.066;2023-09-19T06:25:06;-18720.25;;;18.12;100.00
60583;BME280;46415;47.536;19.066;2023-09-19T06:28:18;-18715.63;;;17.95;100.00
60583;BME280;46415;47.536;19.066;2023-09-19T06:31:30;-18715.63;;;17.95;100.00
60583;BME280;46415;47.536;19.066;2023-09-19T06:34:36;-18715.19;;;17.93;100.00
60583;BME280;46415;47.536;19.066;2023-09-19T06:37:50;-18718.06;;;18.04;100.00
60583;BME280;46415;47.536;19.066;2023-09-19T06:40:55;-18721.88;;;18.18;100.00
60583;BME280;46415;47.536;19.066;2023-09-19T06:44:01;-18724.59;;;18.28;100.00
60583;BME280;46415;47.536;19.066;2023-09-19T06:47:12;-18724.84;;;18.29;100.00
60583;BME280;46415;47.536;19.066;2023-09-19T06:50:23;-18720.38;;;18.13;100.00
60583;BME280;46415;47.536;19.066;2023-09-19T06:53:31;-18719.00;;;18.08;100.00
60583;BME280;46415;47.536;19.066;2023-09-19T06:56:36;-18714.94;;;17.92;100.00
60583;BME280;46415;47.536;19.066;2023-09-19T06:59:46;-18716.97;;;18.00;100.00
60583;BME280;46415;47.536;19.066;2023-09-19T07:03:01;-18721.06;;;18.15;100.00
60583;BME280;46415;47.536;19.066;2023-09-19T07:06:14;-18726.22;;;18.34;100.00
60583;BME280;46415;47.536;19.066;2023-09-19T07:09:20;-18725.28;;;18.31;100.00
60583;BME280;46415;47.536;19.066;2023-09-19T07:12:28;-18725.13;;;18.30;100.00
60583;BME280;46415;47.536;19.066;2023-09-19T07:15:34;-18723.22;;;18.23;100.00
60583;BME280;46415;47.536;19.066;2023-09-19T07:18:45;-18719.69;;;18.10;100.00
60583;BME280;46415;47.536;19.066;2023-09-19T07:21:53;-18720.38;;;18.13;100.00
60583;BME280;46415;47.536;19.066;2023-09-19T07:25:02;-18720.50;;;18.13;100.00
60583;BME280;46415;47.536;19.066;2023-09-19T07:28:12;-18722.97;;;18.22;100.00
60583;BME280;46415;47.536;19.066;2023-09-19T07:31:23;-18725.53;;;18.32;100.00
60583;BME280;46415;47.536;19.066;2023-09-19T07:34:29;-18728.00;;;18.41;100.00
60583;BME280;46415;47.536;19.066;2023-09-19T07:37:34;-18724.59;;;18.28;100.00
60583;BME280;46415;47.536;19.066;2023-09-19T07:40:42;-18722.41;;;18.20;100.00
60583;BME280;46415;47.536;19.066;2023-09-19T07:43:47;-18723.22;;;18.23;100.00
60583;BME280;46415;47.536;19.066;2023-09-19T07:46:54;-18715.19;;;17.93;100.00
60583;BME280;46415;47.536;19.066;2023-09-19T07:50:02;-18707.72;;;17.66;100.00
60583;BME280;46415;47.536;19.066;2023-09-19T07:53:06;-18701.31;;;17.42;100.00
60583;BME280;46415;47.536;19.066;2023-09-19T07:56:12;-18698.75;;;17.32;100.00
60583;BME280;46415;47.536;19.066;2023-09-19T07:59:19;-18697.38;;;17.27;100.00
60583;BME280;46415;47.536;19.066;2023-09-19T08:02:28;-18698.06;;;17.30;100.00
60583;BME280;46415;47.536;19.066;2023-09-19T08:05:34;-18699.56;;;17.35;100.00
60583;BME280;46415;47.536;19.066;2023-09-19T08:08:42;-18699.81;;;17.36;100.00
60583;BME280;46415;47.536;19.066;2023-09-19T08:11:49;-18700.38;;;17.38;100.00
60583;BME280;46415;47.536;19.066;2023-09-19T08:14:53;-18700.22;;;17.38;100.00
60583;BME280;46415;47.536;19.066;2023-09-19T08:18:01;-18699.97;;;17.37;100.00
60583;BME280;46415;47.536;19.066;2023-09-19T08:21:11;-18699.97;;;17.37;100.00
60583;BME280;46415;47.536;19.066;2023-09-19T08:24:23;-18699.69;;;17.36;100.00
60583;BME280;46415;47.536;19.066;2023-09-19T08:27:32;-18697.91;;;17.29;100.00
60583;BME280;46415;47.536;19.066;2023-09-19T08:30:36;-18696.28;;;17.23;100.00
60583;BME280;46415;47.536;19.066;2023-09-19T08:33:41;-18695.19;;;17.19;100.00
60583;BME280;46415;47.536;19.066;2023-09-19T08:36:46;-18693.44;;;17.12;100.00
60583;BME280;46415;47.536;19.066;2023-09-19T08:39:52;-18694.94;;;17.18;100.00
60583;BME280;46415;47.536;19.066;2023-09-19T08:42:59;-18697.91;;;17.29;100.00
60583;BME280;46415;47.536;19.066;2023-09-19T08:49:19;-18699.28;;;17.34;100.00
60583;BME280;46415;47.536;19.066;2023-09-19T08:52:32;-18700.50;;;17.39;100.00
60583;BME280;46415;47.536;19.066;2023-09-19T08:55:41;-18699.69;;;17.36;100.00
60583;BME280;46415;47.536;19.066;2023-09-19T08:58:51;-18700.09;;;17.37;100.00
60583;BME280;46415;47.536;19.066;2023-09-19T09:02:01;-18699.16;;;17.34;100.00
60583;BME280;46415;47.536;19.066;2023-09-19T09:05:10;-18698.06;;;17.30;100.00
60583;BME280;46415;47.536;19.066;2023-09-19T09:08:19;-18699.69;;;17.36;100.00
60583;BME280;46415;47.536;19.066;2023-09-19T09:11:27;-18702.81;;;17.47;100.00
60583;BME280;46415;47.536;19.066;2023-09-19T09:14:34;-18702.53;;;17.46;100.00
60583;BME280;46415;47.536;19.066;2023-09-19T09:17:40;-18706.09;;;17.60;100.00
60583;BME280;46415;47.536;19.066;2023-09-19T09:20:46;-18712.91;;;17.85;100.00
60583;BME280;46415;47.536;19.066;2023-09-19T09:23:55;-18726.50;;;18.35;100.00
60583;BME280;46415;47.536;19.066;2023-09-19T09:27:03;-18730.44;;;18.50;100.00
60583;BME280;46415;47.536;19.066;2023-09-19T09:30:34;-18733.28;;;18.61;100.00
60583;BME280;46415;47.536;19.066;2023-09-19T09:33:41;-18731.13;;;18.53;100.00
60583;BME280;46415;47.536;19.066;2023-09-19T09:36:47;-18727.59;;;18.40;100.00
60583;BME280;46415;47.536;19.066;2023-09-19T09:40:00;-18724.72;;;18.29;100.00
60583;BME280;46415;47.536;19.066;2023-09-19T09:43:28;-18717.53;;;18.02;100.00
60583;BME280;46415;47.536;19.066;2023-09-19T09:46:34;-18716.44;;;17.98;100.00
60583;BME280;46415;47.536;19.066;2023-09-19T09:50:04;-18717.09;;;18.01;100.00
60583;BME280;46415;47.536;19.066;2023-09-19T09:53:23;-18716.84;;;18.00;100.00
60583;BME280;46415;47.536;19.066;2023-09-19T09:56:34;-18716.44;;;17.98;100.00
60583;BME280;46415;47.536;19.066;2023-09-19T10:02:51;-18713.72;;;17.88;100.00
60583;BME280;46415;47.536;19.066;2023-09-19T10:05:58;-18712.91;;;17.85;100.00
60583;BME280;46415;47.536;19.066;2023-09-19T10:09:05;-18714.66;;;17.91;100.00
60583;BME280;46415;47.536;19.066;2023-09-19T10:12:16;-18723.09;;;18.23;100.00
60583;BME280;46415;47.536;19.066;2023-09-19T10:15:20;-18736.00;;;18.71;100.00
60583;BME280;46415;47.536;19.066;2023-09-19T10:18:26;-18750.00;;;19.23;100.00
60583;BME280;46415;47.536;19.066;2023-09-19T10:21:31;-18757.75;;;19.52;100.00
60583;BME280;46415;47.536;19.066;2023-09-19T10:24:40;-18765.91;;;19.82;100.00
60583;BME280;46415;47.536;19.066;2023-09-19T10:28:06;-18770.25;;;19.98;100.00
60583;BME280;46415;47.536;19.066;2023-09-19T10:31:17;-18778.53;;;20.29;100.00
60583;BME280;46415;47.536;19.066;2023-09-19T10:34:25;-18780.56;;;20.37;100.00
60583;BME280;46415;47.536;19.066;2023-09-19T10:37:34;-18775.13;;;20.17;100.00
60583;BME280;46415;47.536;19.066;2023-09-19T10:40:40;-18778.94;;;20.31;100.00
60583;BME280;46415;47.536;19.066;2023-09-19T10:43:47;-18784.66;;;20.52;100.00
60583;BME280;46415;47.536;19.066;2023-09-19T10:46:51;-18784.91;;;20.53;100.00
60583;BME280;46415;47.536;19.066;2023-09-19T10:49:58;-18788.19;;;20.65;100.00
60583;BME280;46415;47.536;19.066;2023-09-19T10:53:02;-18788.03;;;20.65;100.00
60583;BME280;46415;47.536;19.066;2023-09-19T10:56:11;-18788.44;;;20.66;100.00
60583;BME280;46415;47.536;19.066;2023-09-19T10:59:21;-18789.53;;;20.70;100.00
60583;BME280;46415;47.536;19.066;2023-09-19T11:02:27;-18796.19;;;20.95;100.00
60583;BME280;46415;47.536;19.066;2023-09-19T11:05:33;-18801.75;;;21.16;100.00
60583;BME280;46415;47.536;19.066;2023-09-19T11:12:54;-18803.38;;;21.22;100.00
60583;BME280;46415;47.536;19.066;2023-09-19T11:19:05;-18799.84;;;21.09;100.00
60583;BME280;46415;47.536;19.066;2023-09-19T11:22:12;-18814.22;;;21.63;100.00
60583;BME280;46415;47.536;19.066;2023-09-19T11:28:38;-18836.44;;;22.46;97.88
60583;BME280;46415;47.536;19.066;2023-09-19T11:31:45;-18844.16;;;22.74;92.60
60583;BME280;46415;47.536;19.066;2023-09-19T11:34:53;-18843.75;;;22.73;93.34
60583;BME280;46415;47.536;19.066;2023-09-19T11:38:12;-18840.38;;;22.60;95.28
60583;BME280;46415;47.536;19.066;2023-09-19T11:44:32;-18840.50;;;22.61;89.18
60583;BME280;46415;47.536;19.066;2023-09-19T11:47:42;-18845.66;;;22.80;87.68
60583;BME280;46415;47.536;19.066;2023-09-19T11:50:54;-18848.09;;;22.89;87.01
60583;BME280;46415;47.536;19.066;2023-09-19T11:54:01;-18847.81;;;22.88;88.54
60583;BME280;46415;47.536;19.066;2023-09-19T11:57:09;-18843.22;;;22.71;88.20
60583;BME280;46415;47.536;19.066;2023-09-19T12:00:18;-18836.16;;;22.45;89.19
60583;BME280;46415;47.536;19.066;2023-09-19T12:03:23;-18835.09;;;22.40;89.47
60583;BME280;46415;47.536;19.066;2023-09-19T12:06:28;-18836.31;;;22.45;89.68
60583;BME280;46415;47.536;19.066;2023-09-19T12:09:32;-18828.31;;;22.15;89.12
60583;BME280;46415;47.536;19.066;2023-09-19T12:12:37;-18830.22;;;22.22;90.48
60583;BME280;46415;47.536;19.066;2023-09-19T12:15:42;-18835.91;;;22.44;91.18
60583;BME280;46415;47.536;19.066;2023-09-19T12:18:50;-18838.47;;;22.53;92.26
60583;BME280;46415;47.536;19.066;2023-09-19T12:21:56;-18843.34;;;22.71;89.75
60583;BME280;46415;47.536;19.066;2023-09-19T12:25:07;-18845.94;;;22.81;89.47
60583;BME280;46415;47.536;19.066;2023-09-19T12:28:17;-18845.94;;;22.81;90.58
60583;BME280;46415;47.536;19.066;2023-09-19T12:31:22;-18847.16;;;22.86;90.70
60583;BME280;46415;47.536;19.066;2023-09-19T12:34:31;-18855.66;;;23.17;88.78
60583;BME280;46415;47.536;19.066;2023-09-19T12:37:44;-18868.66;;;23.66;87.09
60583;BME280;46415;47.536;19.066;2023-09-19T12:40:55;-18879.06;;;24.05;82.69
60583;BME280;46415;47.536;19.066;2023-09-19T12:44:03;-18870.69;;;23.74;80.37
60583;BME280;46415;47.536;19.066;2023-09-19T12:47:18;-18856.06;;;23.19;85.23
60583;BME280;46415;47.536;19.066;2023-09-19T12:50:26;-18855.66;;;23.17;85.93
60583;BME280;46415;47.536;19.066;2023-09-19T12:53:38;-18854.31;;;23.12;86.36
60583;BME280;46415;47.536;19.066;2023-09-19T12:56:49;-18858.38;;;23.28;89.02
60583;BME280;46415;47.536;19.066;2023-09-19T12:59:59;-18849.84;;;22.96;86.93
60583;BME280;46415;47.536;19.066;2023-09-19T13:06:37;-18845.66;;;22.80;89.71
60583;BME280;46415;47.536;19.066;2023-09-19T13:10:03;-18851.34;;;23.01;87.92
60583;BME280;46415;47.536;19.066;2023-09-19T13:13:23;-18859.19;;;23.31;85.80
60583;BME280;46415;47.536;19.066;2023-09-19T13:16:32;-18859.19;;;23.31;87.54
60583;BME280;46415;47.536;19.066;2023-09-19T13:22:55;-18871.38;;;23.76;84.54
60583;BME280;46415;47.536;19.066;2023-09-19T13:26:11;-18866.50;;;23.58;82.98
60583;BME280;46415;47.536;19.066;2023-09-19T13:29:15;-18867.59;;;23.62;84.69
60583;BME280;46415;47.536;19.066;2023-09-19T13:32:22;-18862.69;;;23.44;82.84
60583;BME280;46415;47.536;19.066;2023-09-19T13:35:28;-18863.94;;;23.48;82.56
60583;BME280;46415;47.536;19.066;2023-09-19T13:38:35;-18861.34;;;23.39;81.96
60583;BME280;46415;47.536;19.066;2023-09-19T13:41:40;-18863.38;;;23.46;83.25
60583;BME280;46415;47.536;19.066;2023-09-19T13:44:50;-18861.75;;;23.40;82.39
60583;BME280;46415;47.536;19.066;2023-09-19T13:47:55;-18860.41;;;23.35;80.92
60583;BME280;46415;47.536;19.066;2023-09-19T13:51:06;-18857.69;;;23.25;80.31
60583;BME280;46415;47.536;19.066;2023-09-19T13:54:14;-18855.41;;;23.16;82.07
60583;BME280;46415;47.536;19.066;2023-09-19T13:57:24;-18857.97;;;23.26;82.22
60583;BME280;46415;47.536;19.066;2023-09-19T14:00:32;-18860.41;;;23.35;81.52
60583;BME280;46415;47.536;19.066;2023-09-19T14:03:49;-18865.28;;;23.53;81.92
60583;BME280;46415;47.536;19.066;2023-09-19T14:07:00;-18872.31;;;23.80;81.67
60583;BME280;46415;47.536;19.066;2023-09-19T14:10:15;-18876.63;;;23.96;78.45
60583;BME280;46415;47.536;19.066;2023-09-19T14:13:26;-18869.59;;;23.70;78.32
60583;BME280;46415;47.536;19.066;2023-09-19T14:16:37;-18867.03;;;23.60;79.61
60583;BME280;46415;47.536;19.066;2023-09-19T14:19:52;-18872.31;;;23.80;82.79
60583;BME280;46415;47.536;19.066;2023-09-19T14:23:02;-18879.75;;;24.08;79.84
60583;BME280;46415;47.536;19.066;2023-09-19T14:26:11;-18886.50;;;24.33;80.14
60583;BME280;46415;47.536;19.066;2023-09-19T14:29:20;-18888.41;;;24.40;79.84
60583;BME280;46415;47.536;19.066;2023-09-19T14:32:29;-18882.31;;;24.17;79.61
60583;BME280;46415;47.536;19.066;2023-09-19T14:35:40;-18885.72;;;24.30;79.17
60583;BME280;46415;47.536;19.066;2023-09-19T14:38:52;-18890.84;;;24.49;80.75
60583;BME280;46415;47.536;19.066;2023-09-19T14:42:07;-18891.91;;;24.53;78.61
60583;BME280;46415;47.536;19.066;2023-09-19T14:45:19;-18886.78;;;24.34;79.28
60583;BME280;46415;47.536;19.066;2023-09-19T14:48:28;-18894.34;;;24.62;75.53
60583;BME280;46415;47.536;19.066;2023-09-19T14:51:40;-18898.41;;;24.77;74.56
60583;BME280;46415;47.536;19.066;2023-09-19T14:54:48;-18896.66;;;24.71;74.44
60583;BME280;46415;47.536;19.066;2023-09-19T14:57:58;-18900.97;;;24.87;74.25
60583;BME280;46415;47.536;19.066;2023-09-19T15:01:06;-18913.66;;;25.35;70.52
60583;BME280;46415;47.536;19.066;2023-09-19T15:04:15;-18915.16;;;25.40;70.47
60583;BME280;46415;47.536;19.066;2023-09-19T15:07:25;-18916.91;;;25.47;66.52
60583;BME280;46415;47.536;19.066;2023-09-19T15:10:36;-18912.19;;;25.29;67.30
60583;BME280;46415;47.536;19.066;2023-09-19T15:13:51;-18902.47;;;24.93;65.34
60583;BME280;46415;47.536;19.066;2023-09-19T15:17:04;-18908.53;;;25.15;67.42
60583;BME280;46415;47.536;19.066;2023-09-19T15:20:19;-18908.12;;;25.14;65.02
60583;BME280;46415;47.536;19.066;2023-09-19T15:23:27;-18911.91;;;25.28;65.38
60583;BME280;46415;47.536;19.066;2023-09-19T15:26:38;-18919.47;;;25.56;63.00
60583;BME280;46415;47.536;19.066;2023-09-19T15:29:52;-18936.34;;;26.20;60.51
60583;BME280;46415;47.536;19.066;2023-09-19T15:33:07;-18952.13;;;26.79;57.93
60583;BME280;46415;47.536;19.066;2023-09-19T15:36:17;-18968.31;;;27.40;54.60
60583;BME280;46415;47.536;19.066;2023-09-19T15:39:32;-18987.69;;;28.13;54.28
60583;BME280;46415;47.536;19.066;2023-09-19T15:42:48;-19018.66;;;29.29;50.18
60583;BME280;46415;47.536;19.066;2023-09-19T15:46:07;-19029.66;;;29.71;48.83
60583;BME280;46415;47.536;19.066;2023-09-19T15:49:23;-19051.16;;;30.52;45.86
60583;BME280;46415;47.536;19.066;2023-09-19T15:52:34;-19057.34;;;30.75;46.82
60583;BME280;46415;47.536;19.066;2023-09-19T15:55:46;-19066.88;;;31.11;44.58
60583;BME280;46415;47.536;19.066;2023-09-19T15:59:00;-19056.66;;;30.72;45.73
60583;BME280;46415;47.536;19.066;2023-09-19T16:02:17;-19046.59;;;30.34;46.17
60583;BME280;46415;47.536;19.066;2023-09-19T16:05:27;-19022.41;;;29.43;48.17
60583;BME280;46415;47.536;19.066;2023-09-19T16:08:35;-18998.19;;;28.52;50.87
60583;BME280;46415;47.536;19.066;2023-09-19T16:11:49;-19012.19;;;29.05;49.40
60583;BME280;46415;47.536;19.066;2023-09-19T16:14:58;-19013.66;;;29.10;51.24
60583;BME280;46415;47.536;19.066;2023-09-19T16:18:08;-18975.19;;;27.66;53.73
60583;BME280;46415;47.536;19.066;2023-09-19T16:21:17;-18931.22;;;26.00;60.80
60583;BME280;46415;47.536;19.066;2023-09-19T16:24:28;-18902.47;;;24.93;66.03
60583;BME280;46415;47.536;19.066;2023-09-19T16:27:41;-18876.50;;;23.95;72.66
60583;BME280;46415;47.536;19.066;2023-09-19T16:30:57;-18857.44;;;23.24;76.81
60583;BME280;46415;47.536;19.066;2023-09-19T16:34:05;-18843.06;;;22.70;80.41
60583;BME280;46415;47.536;19.066;2023-09-19T16:37:23;-18835.75;;;22.43;82.79
60583;BME280;46415;47.536;19.066;2023-09-19T16:40:32;-18825.19;;;22.04;87.77
60583;BME280;46415;47.536;19.066;2023-09-19T16:43:45;-18818.00;;;21.77;88.68
60583;BME280;46415;47.536;19.066;2023-09-19T16:46:56;-18811.78;;;21.53;89.97
60583;BME280;46415;47.536;19.066;2023-09-19T16:50:10;-18807.03;;;21.36;93.27
60583;BME280;46415;47.536;19.066;2023-09-19T16:53:20;-18800.66;;;21.12;94.24
60583;BME280;46415;47.536;19.066;2023-09-19T16:56:29;-18796.31;;;20.96;96.39
60583;BME280;46415;47.536;19.066;2023-09-19T16:59:42;-18793.72;;;20.86;96.73